Time;durP1;ratioP1;P1;durP2;ratioP2;P2;SDS_P1;SDS_P2;PMS_P1;PMS_P2;Temp;Humidity;BMP_temperature;BMP_pressure;BME280_temperature;BME280_humidity;BME280_pressure;Samples;Min_cycle;Max_cycle;Signal;HPM_P1;HPM_P2
2021/07/02 00:01:42;;;;;;;15.27;10.02;;;;;;;12.32;77.39;99722.72;4967610;28;20043;-67
2021/07/02 00:04:16;;;;;;;13.75;9.15;;;;;;;12.33;77.59;99716.50;4942933;28;20108;-69
2021/07/02 00:06:41;;;;;;;23.45;10.82;;;;;;;12.31;77.58;99724.53;4957480;28;20035;-67
2021/07/02 00:09:10;;;;;;;22.30;11.80;;;;;;;12.27;77.15;99727.44;4967410;28;20041;-67
2021/07/02 00:11:35;;;;;;;21.85;10.15;;;;;;;12.24;77.43;99720.53;4943206;28;20061;-68
2021/07/02 00:14:07;;;;;;;21.98;11.13;;;;;;;12.22;77.40;99723.25;4974801;28;20062;-67
2021/07/02 00:16:36;;;;;;;22.77;11.90;;;;;;;12.18;78.18;99720.88;4966471;28;20042;-66
2021/07/02 00:19:01;;;;;;;17.45;10.75;;;;;;;12.13;77.32;99721.13;4976376;28;20031;-68
2021/07/02 00:21:27;;;;;;;15.88;10.93;;;;;;;12.12;78.37;99722.06;4975821;28;20042;-68
2021/07/02 00:23:56;;;;;;;13.85;10.05;;;;;;;12.12;78.21;99721.22;4965629;28;20030;-69
2021/07/02 00:26:22;;;;;;;18.75;11.57;;;;;;;12.12;78.10;99715.94;4942481;28;20114;-67
2021/07/02 00:28:47;;;;;;;17.00;9.38;;;;;;;12.14;78.41;99722.00;4935493;28;20173;-67
2021/07/02 00:31:15;;;;;;;16.90;10.90;;;;;;;12.17;77.29;99720.00;4957454;28;20633;-68
2021/07/02 00:33:41;;;;;;;19.00;10.35;;;;;;;12.14;77.52;99717.56;4956890;28;20042;-68
2021/07/02 00:36:06;;;;;;;13.98;9.68;;;;;;;12.11;78.14;99711.56;4973873;28;20544;-68
2021/07/02 00:38:31;;;;;;;16.55;10.77;;;;;;;12.07;77.97;99718.84;4967732;28;20042;-67
2021/07/02 00:40:57;;;;;;;17.73;10.45;;;;;;;12.10;77.93;99716.00;4975689;28;20053;-68
2021/07/02 00:43:25;;;;;;;18.00;10.73;;;;;;;12.11;78.37;99722.16;4974898;28;20027;-67
2021/07/02 00:46:02;;;;;;;19.80;11.52;;;;;;;12.12;78.05;99719.44;4958710;28;20031;-69
2021/07/02 00:48:27;;;;;;;16.65;9.85;;;;;;;12.17;78.04;99719.16;4972524;28;20034;-67
2021/07/02 00:50:52;;;;;;;17.35;11.23;;;;;;;12.20;77.95;99709.25;4974020;28;20042;-67
2021/07/02 00:53:19;;;;;;;13.73;9.45;;;;;;;12.23;78.08;99714.41;4973775;28;20051;-67
2021/07/02 00:55:48;;;;;;;19.25;11.90;;;;;;;12.25;77.89;99709.84;4973030;28;20096;-67
2021/07/02 00:58:14;;;;;;;15.65;10.40;;;;;;;12.29;78.37;99710.53;4971495;28;20499;-68
2021/07/02 01:00:39;;;;;;;16.60;10.27;;;;;;;12.34;77.95;99705.00;4947913;28;20046;-68
2021/07/02 01:03:04;;;;;;;14.93;9.77;;;;;;;12.38;77.36;99698.56;4972539;28;20114;-67
2021/07/02 01:05:30;;;;;;;15.85;10.45;;;;;;;12.37;77.79;99703.00;4972962;28;20038;-66
2021/07/02 01:07:55;;;;;;;12.65;9.88;;;;;;;12.39;77.80;99701.13;4972320;28;20027;-66
2021/07/02 01:10:21;;;;;;;16.67;12.77;;;;;;;12.39;77.59;99701.13;4972656;28;20538;-66
2021/07/02 01:12:46;;;;;;;22.10;12.52;;;;;;;12.36;77.68;99706.59;4972520;28;20066;-67
2021/07/02 01:15:26;;;;;;;19.20;10.85;;;;;;;12.29;78.15;99701.75;4974147;28;20077;-66
2021/07/02 01:17:52;;;;;;;17.50;11.52;;;;;;;12.28;78.18;99703.56;4974029;28;20043;-67
2021/07/02 01:20:19;;;;;;;19.42;11.70;;;;;;;12.26;78.10;99708.09;4973863;28;20038;-67
2021/07/02 01:22:45;;;;;;;19.58;13.32;;;;;;;12.23;78.12;99705.59;4971491;28;20038;-67
2021/07/02 01:25:11;;;;;;;18.38;13.02;;;;;;;12.23;78.25;99708.22;4971772;28;20514;-67
2021/07/02 01:27:37;;;;;;;22.33;12.43;;;;;;;12.17;78.06;99709.44;4971242;28;20041;-67
2021/07/02 01:30:05;;;;;;;18.58;11.93;;;;;;;12.12;78.28;99698.28;4971558;28;20043;-67
2021/07/02 01:32:30;;;;;;;21.58;13.13;;;;;;;12.11;78.14;99704.53;4971183;28;20029;-66
2021/07/02 01:34:56;;;;;;;16.52;11.98;;;;;;;12.07;78.49;99708.28;4971740;28;20035;-66
2021/07/02 01:37:21;;;;;;;16.27;12.27;;;;;;;12.03;78.60;99697.03;4971654;28;20123;-66
2021/07/02 01:39:46;;;;;;;26.23;15.57;;;;;;;11.98;79.04;99700.84;4954509;28;20519;-66
2021/07/02 01:42:12;;;;;;;24.20;15.10;;;;;;;11.94;78.81;99696.72;4983029;28;20407;-67
2021/07/02 01:44:40;;;;;;;20.10;13.20;;;;;;;11.91;78.66;99688.94;4973712;28;20123;-66
2021/07/02 01:47:06;;;;;;;22.35;12.50;;;;;;;11.89;78.69;99694.31;4991217;28;20037;-67
2021/07/02 01:49:31;;;;;;;20.52;13.60;;;;;;;11.86;78.71;99690.94;4990764;28;20030;-67
2021/07/02 01:51:57;;;;;;;16.05;10.57;;;;;;;11.85;78.90;99692.75;4990490;28;20106;-67
2021/07/02 01:54:23;;;;;;;24.85;13.63;;;;;;;11.83;78.25;99684.88;4990854;28;20045;-67
2021/07/02 01:56:49;;;;;;;21.73;13.45;;;;;;;11.87;78.43;99684.78;4990165;28;20257;-67
2021/07/02 01:59:18;;;;;;;20.52;11.27;;;;;;;11.88;78.84;99687.31;4990679;28;20446;-67
2021/07/02 02:01:45;;;;;;;18.58;12.52;;;;;;;11.88;78.43;99684.66;4990394;28;20053;-66
2021/07/02 02:04:11;;;;;;;18.75;11.73;;;;;;;11.88;78.78;99679.38;4990286;28;20039;-66
2021/07/02 02:06:36;;;;;;;18.42;12.73;;;;;;;11.88;78.58;99682.03;4989969;28;20030;-66
2021/07/02 02:09:03;;;;;;;21.45;14.43;;;;;;;11.87;78.88;99680.34;4988840;28;20038;-66
2021/07/02 02:11:28;;;;;;;18.98;11.90;;;;;;;11.86;78.58;99680.38;4990225;28;20034;-66
2021/07/02 02:13:54;;;;;;;18.20;11.38;;;;;;;11.85;78.48;99674.25;4990083;28;20065;-66
2021/07/02 02:16:19;;;;;;;17.35;13.77;;;;;;;11.85;78.81;99681.31;4973240;28;20398;-67
2021/07/02 02:18:44;;;;;;;23.02;14.15;;;;;;;11.86;78.31;99680.38;4990036;28;20030;-67
2021/07/02 02:21:10;;;;;;;25.60;14.60;;;;;;;11.87;78.29;99677.69;4972662;28;20041;-67
2021/07/02 02:23:35;;;;;;;20.02;13.73;;;;;;;11.91;78.36;99683.66;4990032;28;20549;-67
2021/07/02 02:26:00;;;;;;;20.55;12.07;;;;;;;11.90;78.52;99676.66;4989988;28;20039;-70
2021/07/02 02:28:26;;;;;;;26.00;14.02;;;;;;;11.86;78.18;99673.28;4989673;28;20057;-67
2021/07/02 02:30:51;;;;;;;21.83;13.07;;;;;;;11.88;78.49;99681.19;4990347;28;20038;-66
2021/07/02 02:33:16;;;;;;;25.45;15.15;;;;;;;11.88;78.32;99676.75;4990031;28;20125;-67
2021/07/02 02:35:42;;;;;;;19.20;12.00;;;;;;;11.85;78.61;99676.03;4990392;28;20034;-65
2021/07/02 02:38:07;;;;;;;19.35;13.00;;;;;;;11.90;78.34;99674.03;4990326;28;20602;-66
2021/07/02 02:40:33;;;;;;;19.95;13.52;;;;;;;11.90;78.76;99671.38;4989102;28;20125;-67
2021/07/02 02:42:58;;;;;;;21.65;14.68;;;;;;;11.90;78.81;99677.50;4987921;28;20042;-67
2021/07/02 02:45:23;;;;;;;22.38;14.57;;;;;;;11.88;78.08;99665.34;4990035;28;20398;-68
2021/07/02 02:47:49;;;;;;;22.00;14.65;;;;;;;11.87;78.25;99661.84;4989839;28;20375;-67
2021/07/02 02:50:14;;;;;;;27.70;14.63;;;;;;;11.91;78.46;99667.78;4990047;28;20035;-67
2021/07/02 02:52:40;;;;;;;24.27;15.45;;;;;;;11.92;78.46;99664.22;4990037;28;20037;-67
2021/07/02 02:55:06;;;;;;;18.45;12.88;;;;;;;11.96;78.42;99665.75;4990145;28;20042;-68
2021/07/02 02:57:31;;;;;;;22.55;13.32;;;;;;;11.98;77.89;99664.72;4989717;28;20042;-67
2021/07/02 02:59:57;;;;;;;29.30;17.58;;;;;;;11.99;77.59;99669.06;4989633;28;20046;-67
2021/07/02 03:02:22;;;;;;;28.05;15.43;;;;;;;11.99;77.84;99668.22;4990447;28;20034;-68
2021/07/02 03:04:47;;;;;;;21.27;13.73;;;;;;;12.00;77.80;99668.13;4989691;28;20022;-67
2021/07/02 03:07:13;;;;;;;21.30;15.25;;;;;;;12.01;77.59;99671.59;4989490;28;20035;-67
2021/07/02 03:09:38;;;;;;;24.42;14.93;;;;;;;12.00;78.12;99664.63;4989647;28;20031;-67
2021/07/02 03:12:04;;;;;;;20.65;12.85;;;;;;;12.02;77.74;99670.69;4989561;28;20084;-67
2021/07/02 03:14:30;;;;;;;26.10;15.77;;;;;;;12.03;78.08;99670.63;4988932;28;20057;-67
2021/07/02 03:16:55;;;;;;;26.77;15.13;;;;;;;12.03;77.76;99669.75;4989456;28;20390;-67
2021/07/02 03:19:20;;;;;;;22.20;12.93;;;;;;;12.05;77.99;99669.66;4990563;28;20030;-67
2021/07/02 03:21:46;;;;;;;26.70;14.65;;;;;;;12.03;77.45;99669.75;4991445;28;20034;-66
2021/07/02 03:24:12;;;;;;;27.98;14.32;;;;;;;12.03;77.70;99667.97;4993583;28;20125;-66
2021/07/02 03:26:38;;;;;;;23.73;12.45;;;;;;;12.05;77.65;99661.72;4994813;28;20033;-66
2021/07/02 03:29:04;;;;;;;27.02;14.68;;;;;;;12.03;77.82;99667.97;4993857;28;20042;-67
2021/07/02 03:31:29;;;;;;;27.50;14.80;;;;;;;12.03;77.57;99672.38;4993116;28;20092;-67
2021/07/02 03:33:55;;;;;;;25.13;15.43;;;;;;;12.00;77.43;99667.28;4992643;28;20121;-67
2021/07/02 03:36:20;;;;;;;18.80;12.75;;;;;;;11.99;77.67;99669.06;4989999;28;20429;-66
2021/07/02 03:38:46;;;;;;;18.35;12.98;;;;;;;12.00;78.03;99673.41;4992557;28;20042;-67
2021/07/02 03:41:11;;;;;;;22.77;12.88;;;;;;;12.08;77.16;99675.59;4992742;28;20117;-67
2021/07/02 03:43:37;;;;;;;20.92;12.88;;;;;;;12.11;77.41;99678.09;4992592;28;20034;-68
2021/07/02 03:46:02;;;;;;;21.23;13.38;;;;;;;12.12;77.21;99678.94;4992779;28;20049;-68
2021/07/02 03:48:28;;;;;;;26.63;13.40;;;;;;;12.12;77.33;99674.50;4992381;28;20072;-67
2021/07/02 03:50:53;;;;;;;18.25;12.55;;;;;;;12.11;77.06;99679.88;4993069;28;20034;-67
2021/07/02 03:53:19;;;;;;;25.77;14.73;;;;;;;12.11;77.39;99680.75;4992434;28;20068;-67
2021/07/02 03:55:44;;;;;;;20.45;13.00;;;;;;;12.15;77.50;99669.03;4992523;28;20046;-66
2021/07/02 03:58:09;;;;;;;21.23;14.40;;;;;;;12.23;77.15;99674.75;4992442;28;20163;-67
2021/07/02 04:00:35;;;;;;;24.38;13.48;;;;;;;12.29;76.29;99680.63;4992295;28;20035;-67
2021/07/02 04:03:00;;;;;;;23.95;13.07;;;;;;;12.37;76.26;99681.00;4992599;28;20042;-67
2021/07/02 04:05:26;;;;;;;22.25;12.68;;;;;;;12.36;76.86;99688.09;4992365;28;20118;-67
2021/07/02 04:07:51;;;;;;;18.55;12.00;;;;;;;12.36;76.36;99685.47;4992418;28;20362;-68
2021/07/02 04:10:17;;;;;;;21.33;13.52;;;;;;;12.37;76.60;99692.44;4973915;28;20037;-68
2021/07/02 04:12:42;;;;;;;22.30;12.30;;;;;;;12.36;76.63;99693.38;4992408;28;20032;-65
2021/07/02 04:15:08;;;;;;;26.83;13.32;;;;;;;12.41;76.31;99693.13;4992746;28;20173;-66
2021/07/02 04:17:33;;;;;;;22.70;11.88;;;;;;;12.41;76.30;99696.63;4992135;28;20065;-66
2021/07/02 04:19:59;;;;;;;21.95;14.10;;;;;;;12.44;75.73;99692.94;4992176;28;20053;-67
2021/07/02 04:22:24;;;;;;;19.70;12.52;;;;;;;12.47;76.09;99698.03;4992558;28;20026;-65
2021/07/02 04:24:50;;;;;;;19.90;12.98;;;;;;;12.51;75.30;99702.22;4992428;28;20045;-67
2021/07/02 04:27:17;;;;;;;17.40;12.32;;;;;;;12.56;76.04;99702.78;4974680;28;20084;-66
2021/07/02 04:29:45;;;;;;;20.10;13.00;;;;;;;12.61;75.53;99703.38;4972447;28;20149;-67
2021/07/02 04:32:11;;;;;;;16.23;10.50;;;;;;;12.65;75.89;99696.09;4991007;28;20121;-68
2021/07/02 04:34:36;;;;;;;20.52;11.13;;;;;;;12.70;75.33;99686.13;4991953;28;20398;-67
2021/07/02 04:37:02;;;;;;;15.70;11.30;;;;;;;12.77;75.52;99689.22;4991622;28;20453;-66
2021/07/02 04:39:27;;;;;;;15.85;10.77;;;;;;;12.79;75.47;99690.00;4991963;28;20105;-66
2021/07/02 04:41:53;;;;;;;14.93;11.60;;;;;;;12.83;74.91;99686.22;4992370;28;20042;-68
2021/07/02 04:44:18;;;;;;;18.40;11.07;;;;;;;12.87;75.17;99691.25;4992233;28;20449;-68
2021/07/02 04:46:43;;;;;;;20.02;11.75;;;;;;;12.87;75.24;99680.66;4991685;28;20117;-66
2021/07/02 04:49:09;;;;;;;22.55;12.38;;;;;;;12.88;75.15;99684.16;4972920;28;20715;-67
2021/07/02 04:51:34;;;;;;;16.23;10.85;;;;;;;12.88;75.47;99690.28;4989838;28;20490;-67
2021/07/02 04:54:00;;;;;;;18.60;11.35;;;;;;;12.89;74.70;99691.13;4991696;28;20491;-67
2021/07/02 04:56:26;;;;;;;19.13;11.98;;;;;;;12.88;75.11;99690.28;4991271;28;20096;-67
2021/07/02 04:58:55;;;;;;;19.15;13.35;;;;;;;12.87;75.00;99693.91;4991841;28;20042;-68
2021/07/02 05:01:21;;;;;;;15.27;10.32;;;;;;;12.88;74.80;99685.00;4990305;28;20042;-67
2021/07/02 05:03:47;;;;;;;17.50;10.20;;;;;;;12.87;74.80;99682.44;4990634;28;20133;-66
2021/07/02 05:06:12;;;;;;;18.98;12.48;;;;;;;12.86;74.67;99680.75;4973245;28;20538;-69
2021/07/02 05:08:39;;;;;;;17.35;10.65;;;;;;;12.85;75.19;99679.06;4991216;28;20402;-66
2021/07/02 05:11:04;;;;;;;20.50;13.32;;;;;;;12.83;75.42;99687.06;4990954;28;20038;-67
2021/07/02 05:13:31;;;;;;;15.80;9.80;;;;;;;12.84;75.21;99678.19;4990668;28;20140;-67
2021/07/02 05:16:02;;;;;;;21.23;11.75;;;;;;;12.86;73.56;99683.41;4991615;28;20097;-66
2021/07/02 05:18:27;;;;;;;16.92;10.63;;;;;;;12.87;74.28;99682.44;4990905;28;20034;-68
2021/07/02 05:20:52;;;;;;;13.95;9.38;;;;;;;12.93;73.66;99683.88;4990910;28;20042;-67
2021/07/02 05:23:18;;;;;;;19.17;10.73;;;;;;;13.01;73.46;99677.16;4990811;28;20546;-67
2021/07/02 05:25:43;;;;;;;16.55;9.75;;;;;;;13.15;72.73;99684.28;4990804;28;20034;-67
2021/07/02 05:28:08;;;;;;;16.13;10.23;;;;;;;13.31;72.50;99686.84;4990544;28;20050;-67
2021/07/02 05:30:34;;;;;;;18.73;11.43;;;;;;;13.47;71.92;99679.66;4990702;28;20124;-68
2021/07/02 05:32:59;;;;;;;21.65;10.45;;;;;;;13.65;71.60;99688.22;4987570;28;20092;-68
2021/07/02 05:35:25;;;;;;;14.02;9.82;;;;;;;13.83;70.29;99686.22;4990813;28;20495;-66
2021/07/02 05:37:50;;;;;;;12.85;9.32;;;;;;;14.12;69.68;99692.25;4990252;28;20068;-67
2021/07/02 05:40:17;;;;;;;13.48;9.95;;;;;;;14.38;67.81;99690.53;4990564;28;20045;-67
2021/07/02 05:42:43;;;;;;;16.25;9.18;;;;;;;14.65;67.57;99694.16;4990098;28;20030;-67
2021/07/02 05:45:09;;;;;;;13.95;9.70;;;;;;;14.80;66.86;99693.09;4990905;28;20035;-68
2021/07/02 05:47:40;;;;;;;13.25;8.88;;;;;;;14.93;66.37;99695.75;4990076;28;20054;-67
2021/07/02 05:50:06;;;;;;;12.45;8.75;;;;;;;15.11;65.92;99685.66;4990614;28;20042;-67
2021/07/02 05:52:33;;;;;;;11.35;9.05;;;;;;;15.34;65.40;99687.56;4989870;28;20122;-67
2021/07/02 05:54:59;;;;;;;12.77;7.53;;;;;;;15.46;64.94;99689.34;4990348;28;20045;-67
2021/07/02 05:57:24;;;;;;;9.32;6.95;;;;;;;15.50;63.61;99684.66;4990605;28;20034;-67
2021/07/02 05:59:50;;;;;;;13.32;6.80;;;;;;;15.57;63.11;99683.25;4990504;28;20031;-68
2021/07/02 06:02:15;;;;;;;12.05;6.57;;;;;;;15.71;62.77;99684.13;4990288;28;20050;-65
2021/07/02 06:04:40;;;;;;;13.73;7.07;;;;;;;15.79;62.52;99687.91;4990231;28;20046;-68
2021/07/02 06:07:06;;;;;;;17.85;7.88;;;;;;;15.80;61.01;99691.41;4989905;28;20042;-68
2021/07/02 06:09:35;;;;;;;11.38;7.72;;;;;;;15.91;60.94;99690.66;4989771;28;20054;-67
2021/07/02 06:12:01;;;;;;;11.90;6.78;;;;;;;15.89;60.95;99696.06;4990669;28;20398;-67
2021/07/02 06:14:29;;;;;;;12.27;6.28;;;;;;;15.89;60.92;99690.75;4991008;28;20034;-68
2021/07/02 06:16:54;;;;;;;11.88;6.05;;;;;;;15.98;60.60;99698.06;4992028;28;20509;-67
2021/07/02 06:19:20;;;;;;;14.40;8.00;;;;;;;16.05;60.76;99701.13;4990695;28;20042;-67
2021/07/02 06:21:45;;;;;;;12.52;7.18;;;;;;;16.12;60.42;99702.38;4990450;28;20459;-67
2021/07/02 06:24:10;;;;;;;13.32;7.18;;;;;;;16.20;60.39;99691.19;4989025;28;20619;-67
2021/07/02 06:26:36;;;;;;;9.77;7.55;;;;;;;16.22;59.71;99695.44;4989836;28;20038;-67
2021/07/02 06:29:01;;;;;;;8.10;6.03;;;;;;;16.17;59.69;99694.91;4989861;28;20134;-68
2021/07/02 06:31:26;;;;;;;8.43;6.60;;;;;;;16.28;59.60;99697.63;4990503;28;20502;-68
2021/07/02 06:33:52;;;;;;;10.45;6.47;;;;;;;16.35;59.46;99698.00;4973424;28;20045;-67
2021/07/02 06:36:17;;;;;;;10.80;6.60;;;;;;;16.45;58.82;99700.84;4989821;28;20030;-69
2021/07/02 06:38:43;;;;;;;14.27;7.15;;;;;;;16.55;58.71;99693.00;4990105;28;20050;-68
2021/07/02 06:41:08;;;;;;;13.25;6.72;;;;;;;16.52;58.82;99697.59;4990689;28;20035;-68
2021/07/02 06:43:33;;;;;;;7.85;6.78;;;;;;;16.56;58.73;99702.69;4989208;28;20497;-68
2021/07/02 06:45:59;;;;;;;15.55;7.97;;;;;;;16.69;58.96;99703.47;4989817;28;20035;-69
2021/07/02 06:48:24;;;;;;;11.35;8.35;;;;;;;16.76;58.42;99702.03;4988579;28;20054;-67
2021/07/02 06:50:50;;;;;;;10.38;6.80;;;;;;;17.10;58.10;99699.44;4985895;28;20035;-67
2021/07/02 06:53:16;;;;;;;11.57;7.03;;;;;;;17.08;57.66;99712.03;4989770;28;20140;-67
2021/07/02 06:55:42;;;;;;;12.27;7.28;;;;;;;17.14;57.87;99707.09;4992089;28;20045;-68
2021/07/02 06:58:09;;;;;;;10.40;6.30;;;;;;;17.16;57.89;99705.16;4993662;28;20129;-67
2021/07/02 07:00:37;;;;;;;16.63;7.00;;;;;;;17.40;57.30;99704.22;4994169;28;20129;-67
2021/07/02 07:03:03;;;;;;;11.88;7.55;;;;;;;17.45;56.46;99707.34;4993685;28;20034;-68
2021/07/02 07:05:28;;;;;;;10.55;7.28;;;;;;;17.49;57.53;99714.13;4993120;28;20030;-67
2021/07/02 07:07:54;;;;;;;10.48;6.90;;;;;;;17.54;56.94;99713.75;4993889;28;20065;-67
2021/07/02 07:10:19;;;;;;;10.80;6.95;;;;;;;17.55;56.95;99711.00;4993271;28;20065;-66
2021/07/02 07:12:45;;;;;;;11.88;6.85;;;;;;;17.52;56.86;99723.69;4992769;28;20091;-67
2021/07/02 07:15:11;;;;;;;14.77;7.53;;;;;;;17.53;56.74;99722.75;4993827;28;20035;-67
2021/07/02 07:17:36;;;;;;;11.82;8.00;;;;;;;17.56;56.94;99720.66;4993236;28;20065;-68
2021/07/02 07:20:03;;;;;;;12.63;7.97;;;;;;;17.61;56.99;99722.97;4993092;28;20103;-67
2021/07/02 07:22:30;;;;;;;11.45;8.30;;;;;;;17.61;55.78;99722.97;4993118;28;20172;-67
2021/07/02 07:24:56;;;;;;;13.85;9.13;;;;;;;17.66;56.63;99722.59;4993812;28;20034;-67
2021/07/02 07:27:22;;;;;;;16.90;8.30;;;;;;;17.69;56.91;99725.88;4992434;28;20041;-68
2021/07/02 07:29:47;;;;;;;17.23;8.63;;;;;;;17.76;57.11;99724.41;4975215;28;20118;-67
2021/07/02 07:32:12;;;;;;;11.60;8.50;;;;;;;17.68;57.30;99724.19;4990115;28;20040;-66
2021/07/02 07:34:47;;;;;;;12.32;8.07;;;;;;;17.80;56.84;99730.41;4992769;28;20491;-67
2021/07/02 07:37:18;;;;;;;12.05;8.07;;;;;;;17.91;56.76;99726.84;4993167;28;20129;-66
2021/07/02 07:39:44;;;;;;;13.85;8.82;;;;;;;18.00;56.46;99732.28;4993401;28;20054;-69
2021/07/02 07:42:09;;;;;;;12.93;8.48;;;;;;;18.12;56.19;99729.59;4992861;28;20121;-68
2021/07/02 07:44:34;;;;;;;14.82;9.25;;;;;;;18.20;55.34;99727.16;4992363;28;20102;-68
2021/07/02 07:47:00;;;;;;;15.13;8.52;;;;;;;18.22;54.66;99719.88;4992709;28;20088;-67
2021/07/02 07:49:25;;;;;;;13.57;8.73;;;;;;;18.32;54.70;99727.97;4993650;28;20034;-67
2021/07/02 07:54:19;;;;;;;12.10;8.98;;;;;;;19.39;51.78;99726.91;4992510;28;20137;-68
2021/07/02 07:56:51;;;;;;;14.35;9.55;;;;;;;19.34;51.75;99726.47;4975801;28;20133;-68
2021/07/02 07:59:21;;;;;;;15.70;9.40;;;;;;;19.17;51.83;99724.41;4983639;28;20121;-67
2021/07/02 08:01:47;;;;;;;14.27;8.50;;;;;;;19.44;51.60;99721.16;4992592;28;20158;-68
2021/07/02 08:04:14;;;;;;;17.17;8.95;;;;;;;19.68;50.81;99718.19;4993083;28;20065;-68
2021/07/02 08:06:41;;;;;;;14.65;8.35;;;;;;;19.76;49.79;99720.19;4992366;28;20037;-67
2021/07/02 08:09:07;;;;;;;15.35;10.15;;;;;;;19.82;49.15;99717.00;4992765;28;20042;-67
2021/07/02 08:11:32;;;;;;;14.20;8.77;;;;;;;19.89;49.17;99716.31;4974889;28;20038;-68
2021/07/02 08:13:59;;;;;;;19.83;11.15;;;;;;;19.98;48.07;99716.44;4972662;28;20046;-68
2021/07/02 08:16:25;;;;;;;14.68;7.80;;;;;;;20.13;47.74;99715.94;4961116;28;20065;-68
2021/07/02 08:18:50;;;;;;;13.82;8.02;;;;;;;20.40;47.78;99722.41;4956921;28;20035;-66
2021/07/02 08:21:16;;;;;;;12.60;8.30;;;;;;;20.66;45.97;99720.06;4937101;28;20039;-68
2021/07/02 08:23:42;;;;;;;13.23;8.27;;;;;;;20.93;45.45;99719.34;4968462;28;20517;-67
2021/07/02 08:26:07;;;;;;;11.88;8.48;;;;;;;21.07;45.58;99718.03;4950344;28;20174;-67
2021/07/02 08:31:16;;;;;;;10.55;9.20;;;;;;;21.44;44.89;99722.63;4989075;28;20472;-67
2021/07/02 08:33:41;;;;;;;10.98;9.75;;;;;;;21.62;44.49;99714.63;4979728;28;20118;-67
2021/07/02 08:36:07;;;;;;;12.40;8.85;;;;;;;21.44;44.32;99714.59;4968064;28;20132;-68
2021/07/02 08:38:32;;;;;;;13.70;8.10;;;;;;;21.34;44.82;99711.91;4968772;28;20097;-68
2021/07/02 08:40:58;;;;;;;10.02;7.80;;;;;;;21.35;45.73;99724.31;4968530;28;20150;-68
2021/07/02 08:43:23;;;;;;;11.55;8.80;;;;;;;21.47;45.88;99724.16;4967252;28;20097;-55
2021/07/02 08:45:49;;;;;;;16.17;9.85;;;;;;;21.40;45.72;99724.75;4966378;28;20050;-55
2021/07/02 08:48:19;;;;;;;12.95;8.45;;;;;;;21.53;45.63;99724.41;4966656;28;20038;-57
2021/07/02 08:50:44;;;;;;;19.20;9.02;;;;;;;21.62;45.60;99725.38;4966597;28;20039;-54
2021/07/02 08:53:10;;;;;;;14.98;9.65;;;;;;;21.83;44.96;99730.47;4978052;28;20584;-57
2021/07/02 08:55:36;;;;;;;12.13;9.65;;;;;;;21.85;44.84;99733.88;4968413;28;20335;-51
2021/07/02 08:58:01;;;;;;;12.32;9.05;;;;;;;21.85;44.21;99726.66;4980193;28;20823;-57
2021/07/02 09:00:27;;;;;;;12.68;8.82;;;;;;;21.91;44.70;99729.75;4948336;28;20343;-50
2021/07/02 09:02:53;;;;;;;18.30;10.77;;;;;;;21.89;44.43;99721.84;4966038;28;20053;-58
2021/07/02 09:05:36;;;;;;;12.35;8.45;;;;;;;21.82;45.31;99729.63;4965785;28;20034;-53
2021/07/02 09:08:13;;;;;;;14.27;9.15;;;;;;;22.12;45.13;99737.53;4959042;28;20050;-56
2021/07/02 09:10:38;;;;;;;17.00;10.30;;;;;;;22.18;44.62;99729.72;4949642;28;20134;-67
2021/07/02 09:13:04;;;;;;;16.00;9.98;;;;;;;21.98;44.98;99729.00;4946906;28;20141;-66
2021/07/02 09:15:29;;;;;;;13.02;9.88;;;;;;;21.90;44.37;99731.56;4952950;28;20035;-66
2021/07/02 09:17:57;;;;;;;16.00;9.82;;;;;;;21.93;44.76;99725.94;4955588;28;20047;-67
2021/07/02 09:20:24;;;;;;;13.65;8.98;;;;;;;22.09;44.68;99728.78;4966166;28;20062;-67
2021/07/02 09:22:54;;;;;;;18.48;10.13;;;;;;;22.54;44.09;99728.91;4978563;28;20046;-67
2021/07/02 09:25:34;;;;;;;9.85;7.82;;;;;;;23.20;41.56;99730.31;4965987;28;20117;-67
2021/07/02 09:28:04;;;;;;;14.27;8.18;;;;;;;23.17;42.09;99730.63;4948238;28;20054;-66
2021/07/02 09:30:32;;;;;;;9.82;7.25;;;;;;;22.76;41.95;99727.59;4965591;28;20054;-68
2021/07/02 09:33:00;;;;;;;9.15;7.45;;;;;;;22.62;42.27;99732.53;4965302;28;20042;-66
2021/07/02 09:35:45;;;;;;;11.27;7.35;;;;;;;22.64;42.37;99729.69;4966416;28;20069;-68
2021/07/02 09:38:10;;;;;;;23.00;11.93;;;;;;;23.68;40.05;99731.59;4965190;28;20049;-68
2021/07/02 09:40:37;;;;;;;19.02;6.65;;;;;;;23.41;40.43;99727.25;4967138;28;20034;-66
2021/07/02 09:43:10;;;;;;;15.45;6.95;;;;;;;23.69;39.85;99730.59;4984284;28;20031;-68
2021/07/02 09:45:52;;;;;;;9.85;7.97;;;;;;;23.66;40.49;99729.06;4985452;28;20517;-67
2021/07/02 09:48:23;;;;;;;10.88;6.95;;;;;;;23.34;40.38;99727.88;4984671;28;20034;-66
2021/07/02 09:50:50;;;;;;;7.55;5.50;;;;;;;23.12;40.38;99734.63;4985033;28;20035;-67
2021/07/02 09:53:18;;;;;;;11.00;6.88;;;;;;;23.97;39.65;99739.28;4985102;28;20112;-67
2021/07/02 09:55:52;;;;;;;8.70;7.30;;;;;;;24.27;39.63;99735.19;4985077;28;20045;-67
2021/07/02 09:58:19;;;;;;;15.27;8.57;;;;;;;23.67;40.81;99737.97;4984869;28;20037;-67
2021/07/02 10:00:53;;;;;;;8.18;6.85;;;;;;;23.50;40.75;99735.19;4984865;28;20035;-67
2021/07/02 10:03:24;;;;;;;8.93;6.47;;;;;;;23.47;40.89;99740.91;4984753;28;20110;-66
2021/07/02 10:05:55;;;;;;;18.17;7.15;;;;;;;23.08;41.94;99735.09;4966948;28;20035;-66
2021/07/02 10:08:23;;;;;;;14.48;7.50;;;;;;;22.91;42.18;99744.84;4965020;28;20118;-67
2021/07/02 10:10:51;;;;;;;6.90;5.00;;;;;;;23.04;39.82;99749.88;4964511;28;20042;-68
2021/07/02 10:13:17;;;;;;;7.53;6.40;;;;;;;23.70;39.31;99754.66;4964938;28;20101;-67
2021/07/02 10:15:43;;;;;;;11.07;6.15;;;;;;;24.20;37.22;99753.84;4965121;28;20031;-70
2021/07/02 10:18:12;;;;;;;7.90;5.45;;;;;;;24.02;37.21;99753.09;4964738;28;20503;-67
2021/07/02 10:20:39;;;;;;;9.63;6.03;;;;;;;23.55;38.04;99757.09;4966455;28;20042;-67
2021/07/02 10:23:06;;;;;;;10.07;5.22;;;;;;;24.01;38.12;99748.75;4955827;28;20066;-68
2021/07/02 10:25:31;;;;;;;9.38;5.15;;;;;;;24.63;37.45;99746.53;4964756;28;20050;-65
2021/07/02 10:27:58;;;;;;;8.40;5.57;;;;;;;24.93;37.22;99749.56;4965575;28;20045;-69
2021/07/02 10:30:24;;;;;;;9.38;6.60;;;;;;;24.35;38.66;99753.22;4954294;28;20132;-67
2021/07/02 10:32:54;;;;;;;32.53;9.90;;;;;;;24.40;38.66;99751.72;4942650;28;20122;-58
2021/07/02 10:35:20;;;;;;;15.70;7.53;;;;;;;24.58;38.98;99748.06;4964674;28;20097;-56
2021/07/02 10:38:00;;;;;;;17.02;7.95;;;;;;;25.45;37.27;99741.13;4965025;28;20085;-56
2021/07/02 10:40:42;;;;;;;11.15;6.40;;;;;;;26.16;36.27;99752.00;4964257;28;20387;-59
2021/07/02 10:43:11;;;;;;;13.60;6.60;;;;;;;27.11;35.24;99746.25;4964625;28;20105;-57
2021/07/02 10:45:38;;;;;;;10.15;6.50;;;;;;;27.78;34.18;99741.84;4949456;28;20041;-58
2021/07/02 10:48:04;;;;;;;10.27;6.10;;;;;;;27.55;34.09;99736.53;4963201;28;20494;-54
2021/07/02 10:50:36;;;;;;;10.52;6.03;;;;;;;26.38;36.00;99741.41;4983944;28;20042;-56
2021/07/02 10:53:29;;;;;;;11.20;5.68;;;;;;;25.63;37.76;99743.59;4984382;28;20042;-56
2021/07/02 10:55:58;;;;;;;10.15;7.63;;;;;;;25.48;38.44;99740.78;4984426;28;20073;-55
2021/07/02 10:58:51;;;;;;;7.78;6.50;;;;;;;25.25;39.18;99740.66;4983020;28;20049;-58
2021/07/02 11:01:16;;;;;;;13.80;7.82;;;;;;;25.61;38.08;99739.38;4984463;28;20563;-75
2021/07/02 11:03:42;;;;;;;10.25;7.20;;;;;;;25.17;39.54;99735.25;4986161;28;20026;-75
2021/07/02 11:06:39;;;;;;;10.52;7.53;;;;;;;24.96;39.20;99740.34;4967240;28;20514;-77
2021/07/02 11:09:06;;;;;;;15.00;8.13;;;;;;;24.39;39.92;99741.94;4967235;28;20498;-76
2021/07/02 11:12:10;;;;;;;10.80;8.00;;;;;;;24.09;41.57;99742.53;4967119;28;20058;-75
2021/07/02 11:15:07;;;;;;;13.35;8.10;;;;;;;23.60;42.68;99748.53;4985672;28;20478;-79
2021/07/02 11:17:40;;;;;;;15.13;9.52;;;;;;;23.49;43.29;99749.66;4985254;28;20145;-75
2021/07/02 11:20:09;;;;;;;13.50;8.55;;;;;;;23.32;43.71;99743.34;4987395;28;20622;-76
2021/07/02 11:22:48;;;;;;;15.32;11.30;;;;;;;23.08;45.05;99741.31;4987595;28;20046;-75
2021/07/02 11:25:25;;;;;;;13.65;9.85;;;;;;;22.93;45.48;99751.75;4986905;28;20125;-75
2021/07/02 11:27:51;;;;;;;12.77;10.20;;;;;;;23.05;44.95;99746.19;4987603;28;20449;-74